Wells, Maine
Current Conditions -  °F | °C
As of 5:15 AM on Monday 26 Jan 2015 (Local Time) from KSFM Reporting Station
Clear Clear  
Wind Chill: -4°   Ceiling: Unl
Heat Index: -4°   Visibility: 10mi
Dew Point: -13°   Wind: 0mph
Humidity: 65%   Direction: NA
Pressure: 30.11"   Gusts: NA
Location:  43.28°N, 70.58°W
Report Text: KSFM 261015Z AUTO 00000KT 10SM CLR M20/M25 A3011 RMK AO1
Loading
Personal Weather Stations






























Interactive Weather Map New forecast layout! Learn more

10-Day Weather Forecast

Advertisements
Track Severe Weather on mobile